Time;durP1;ratioP1;P1;durP2;ratioP2;P2;SDS_P1;SDS_P2;PMS_P1;PMS_P2;Temp;Humidity;BMP_temperature;BMP_pressure;BME280_temperature;BME280_humidity;BME280_pressure;Samples;Min_cycle;Max_cycle;Signal;HPM_P1;HPM_P2
2023/03/09 00:01:50;;;;;;;1.43;1.43;;;;;;;;;;5055155;28;20418;-60
2023/03/09 00:04:18;;;;;;;1.67;1.13;;;;;;;;;;5055091;28;20549;-60
2023/03/09 00:06:47;;;;;;;1.50;1.43;;;;;;;;;;5055048;28;20472;-60
2023/03/09 00:09:14;;;;;;;1.10;1.10;;;;;;;;;;5055144;28;20509;-60
2023/03/09 00:11:41;;;;;;;1.47;1.37;;;;;;;;;;5055185;28;20407;-60
2023/03/09 00:14:07;;;;;;;0.90;0.90;;;;;;;;;;5054899;28;20439;-60
2023/03/09 00:16:33;;;;;;;1.67;1.30;;;;;;;;;;5054937;28;20429;-60
2023/03/09 00:18:59;;;;;;;2.00;1.50;;;;;;;;;;5054751;28;20486;-60
2023/03/09 00:21:38;;;;;;;2.27;1.00;;;;;;;;;;5054992;28;20893;-60
2023/03/09 00:24:11;;;;;;;1.23;1.23;;;;;;;;;;5054712;28;20525;-59
2023/03/09 00:26:41;;;;;;;1.40;1.30;;;;;;;;;;5054799;28;20419;-60
2023/03/09 00:29:07;;;;;;;1.37;1.37;;;;;;;;;;5054573;28;20426;-60
2023/03/09 00:31:33;;;;;;;1.47;1.37;;;;;;;;;;5054854;28;20801;-59
2023/03/09 00:33:59;;;;;;;1.33;1.20;;;;;;;;;;5054571;28;20438;-60
2023/03/09 00:36:28;;;;;;;1.90;1.10;;;;;;;;;;5054372;28;20441;-60
2023/03/09 00:38:54;;;;;;;1.47;1.20;;;;;;;;;;5054391;28;20865;-59
2023/03/09 00:41:23;;;;;;;1.20;1.10;;;;;;;;;;5054569;28;20415;-60
2023/03/09 00:43:49;;;;;;;2.00;1.30;;;;;;;;;;5054300;28;20468;-60
2023/03/09 00:46:18;;;;;;;1.40;1.30;;;;;;;;;;5052951;28;20426;-60
2023/03/09 00:48:44;;;;;;;1.33;1.33;;;;;;;;;;5049914;28;20812;-60
2023/03/09 00:51:10;;;;;;;2.70;1.33;;;;;;;;;;5034335;28;20490;-60
2023/03/09 00:53:37;;;;;;;2.77;1.20;;;;;;;;;;5034271;28;20530;-62
2023/03/09 00:56:04;;;;;;;2.43;1.40;;;;;;;;;;5034278;28;20431;-62
2023/03/09 00:58:30;;;;;;;1.20;1.10;;;;;;;;;;5034146;28;20450;-60
2023/03/09 01:00:56;;;;;;;2.93;1.23;;;;;;;;;;5034357;28;20461;-61
2023/03/09 01:03:25;;;;;;;3.80;1.70;;;;;;;;;;5034065;28;20611;-60
2023/03/09 01:05:51;;;;;;;2.70;1.33;;;;;;;;;;5032868;28;20517;-60
2023/03/09 01:08:17;;;;;;;3.27;1.30;;;;;;;;;;5033965;28;20479;-61
2023/03/09 01:10:46;;;;;;;1.77;1.67;;;;;;;;;;5032696;28;20427;-60
2023/03/09 01:13:12;;;;;;;1.37;1.23;;;;;;;;;;5033871;28;20466;-60
2023/03/09 01:15:38;;;;;;;3.13;1.67;;;;;;;;;;5033899;28;20416;-61
2023/03/09 01:18:04;;;;;;;1.00;1.00;;;;;;;;;;5034074;28;20822;-61
2023/03/09 01:20:30;;;;;;;1.40;1.30;;;;;;;;;;5032874;28;20407;-60
2023/03/09 01:22:56;;;;;;;4.00;1.73;;;;;;;;;;5032843;28;20420;-61
2023/03/09 01:25:23;;;;;;;2.63;1.70;;;;;;;;;;5033951;28;20459;-61
2023/03/09 01:27:49;;;;;;;1.47;1.37;;;;;;;;;;5033763;28;20822;-61
2023/03/09 01:30:15;;;;;;;1.50;1.40;;;;;;;;;;5033612;28;20969;-61
2023/03/09 01:32:44;;;;;;;1.23;1.23;;;;;;;;;;5033522;28;20929;-61
2023/03/09 01:35:10;;;;;;;3.90;1.67;;;;;;;;;;5033177;28;20418;-61
2023/03/09 01:37:36;;;;;;;7.70;1.37;;;;;;;;;;5033526;28;20408;-61
2023/03/09 01:40:05;;;;;;;2.20;1.43;;;;;;;;;;5033006;28;20430;-61
2023/03/09 01:42:31;;;;;;;4.60;1.00;;;;;;;;;;5033382;28;20462;-61
2023/03/09 01:45:20;;;;;;;4.60;1.43;;;;;;;;;;5032082;28;20474;-61
2023/03/09 01:47:47;;;;;;;2.73;1.23;;;;;;;;;;5032249;28;20444;-61
2023/03/09 01:50:15;;;;;;;1.43;1.33;;;;;;;;;;5033315;28;20432;-61
2023/03/09 01:52:43;;;;;;;1.53;1.43;;;;;;;;;;5033369;28;20454;-61
2023/03/09 01:55:16;;;;;;;2.40;1.70;;;;;;;;;;5033203;28;20439;-61
2023/03/09 01:57:44;;;;;;;1.30;1.30;;;;;;;;;;5033245;28;20419;-61
2023/03/09 02:00:15;;;;;;;2.20;1.30;;;;;;;;;;5033052;28;20478;-60
2023/03/09 02:02:45;;;;;;;1.43;1.00;;;;;;;;;;5033405;28;20428;-61
2023/03/09 02:05:13;;;;;;;1.30;1.30;;;;;;;;;;5033157;28;20875;-60
2023/03/09 02:07:41;;;;;;;1.53;1.43;;;;;;;;;;5032922;28;20424;-60
2023/03/09 02:10:07;;;;;;;6.23;2.03;;;;;;;;;;5031387;28;20427;-60
2023/03/09 02:12:34;;;;;;;5.20;1.63;;;;;;;;;;5032580;28;20952;-60
2023/03/09 02:15:01;;;;;;;10.03;2.40;;;;;;;;;;5032896;28;20439;-60
2023/03/09 02:17:27;;;;;;;6.00;1.50;;;;;;;;;;5032941;28;20886;-60
2023/03/09 02:20:12;;;;;;;4.37;1.93;;;;;;;;;;5032849;28;20439;-60
2023/03/09 02:22:38;;;;;;;6.67;2.20;;;;;;;;;;5032705;28;20906;-61
2023/03/09 02:25:21;;;;;;;4.30;1.70;;;;;;;;;;5032691;28;20478;-60
2023/03/09 02:27:47;;;;;;;8.23;1.83;;;;;;;;;;5032795;28;20440;-60
2023/03/09 02:30:15;;;;;;;4.37;2.40;;;;;;;;;;5032708;28;20473;-61
2023/03/09 02:32:41;;;;;;;4.03;2.10;;;;;;;;;;5032777;28;20882;-60
2023/03/09 02:35:09;;;;;;;2.83;1.40;;;;;;;;;;5032660;28;20518;-61
2023/03/09 02:37:37;;;;;;;2.43;0.90;;;;;;;;;;5032642;28;20411;-61
2023/03/09 02:40:10;;;;;;;3.67;1.00;;;;;;;;;;5032619;28;20443;-61
2023/03/09 02:42:36;;;;;;;0.57;0.57;;;;;;;;;;5032612;28;20401;-60
2023/03/09 02:45:05;;;;;;;0.40;0.40;;;;;;;;;;5032520;28;20561;-61
2023/03/09 02:47:31;;;;;;;9.07;0.63;;;;;;;;;;5032457;28;20473;-61
2023/03/09 02:49:57;;;;;;;1.10;0.50;;;;;;;;;;5032553;28;20849;-60
2023/03/09 02:52:23;;;;;;;0.40;0.40;;;;;;;;;;5032554;28;20404;-60
2023/03/09 02:54:49;;;;;;;0.70;0.40;;;;;;;;;;5032489;28;20814;-61
2023/03/09 02:57:17;;;;;;;0.40;0.40;;;;;;;;;;5032515;28;20404;-61
2023/03/09 02:59:43;;;;;;;1.17;0.30;;;;;;;;;;5032676;28;20432;-61
2023/03/09 03:02:11;;;;;;;1.00;0.53;;;;;;;;;;5032537;28;20396;-60
2023/03/09 03:04:37;;;;;;;0.30;0.30;;;;;;;;;;5030987;28;20498;-60
2023/03/09 03:07:06;;;;;;;0.40;0.40;;;;;;;;;;5032433;28;20420;-60
2023/03/09 03:09:32;;;;;;;0.90;0.40;;;;;;;;;;5032222;28;20474;-60
2023/03/09 03:11:58;;;;;;;0.60;0.53;;;;;;;;;;5032392;28;20423;-60
2023/03/09 03:14:27;;;;;;;0.30;0.30;;;;;;;;;;5032166;28;20416;-60
2023/03/09 03:16:54;;;;;;;2.33;0.40;;;;;;;;;;5032306;28;20420;-60
2023/03/09 03:19:20;;;;;;;0.30;0.30;;;;;;;;;;5032366;28;20492;-61
2023/03/09 03:21:47;;;;;;;0.50;0.40;;;;;;;;;;5032176;28;20795;-60
2023/03/09 03:24:13;;;;;;;0.30;0.30;;;;;;;;;;5035086;28;20503;-60
2023/03/09 03:26:41;;;;;;;0.30;0.30;;;;;;;;;;5035975;28;20504;-60
2023/03/09 03:29:07;;;;;;;0.40;0.30;;;;;;;;;;5036072;28;20430;-60
2023/03/09 03:31:33;;;;;;;0.40;0.37;;;;;;;;;;5035918;28;20416;-60
2023/03/09 03:33:59;;;;;;;0.40;0.40;;;;;;;;;;5035729;28;20489;-59
2023/03/09 03:36:28;;;;;;;0.30;0.30;;;;;;;;;;5043548;28;20480;-60
2023/03/09 03:38:54;;;;;;;0.57;0.30;;;;;;;;;;5054357;28;20430;-59
2023/03/09 03:41:19;;;;;;;0.30;0.30;;;;;;;;;;5056047;28;20430;-61
2023/03/09 03:43:45;;;;;;;0.30;0.30;;;;;;;;;;5055512;28;20469;-61
2023/03/09 03:46:11;;;;;;;0.30;0.30;;;;;;;;;;5054228;28;20481;-60
2023/03/09 03:48:37;;;;;;;0.53;0.30;;;;;;;;;;5055331;28;20437;-61
2023/03/09 03:51:05;;;;;;;0.30;0.30;;;;;;;;;;5054272;28;20439;-59
2023/03/09 03:53:31;;;;;;;0.30;0.30;;;;;;;;;;5055558;28;20407;-59
2023/03/09 03:55:57;;;;;;;0.30;0.30;;;;;;;;;;5055306;28;20435;-61
2023/03/09 03:58:23;;;;;;;0.30;0.30;;;;;;;;;;5055317;28;20414;-60
2023/03/09 04:00:49;;;;;;;0.40;0.40;;;;;;;;;;5055230;28;20434;-60
2023/03/09 04:03:15;;;;;;;1.13;0.40;;;;;;;;;;5055197;28;20407;-60
2023/03/09 04:05:41;;;;;;;0.50;0.50;;;;;;;;;;5055013;28;20501;-60
2023/03/09 04:08:08;;;;;;;0.50;0.50;;;;;;;;;;5055204;28;20387;-60
2023/03/09 04:10:34;;;;;;;0.40;0.40;;;;;;;;;;5055087;28;20423;-60
2023/03/09 04:13:00;;;;;;;0.60;0.50;;;;;;;;;;5054044;28;20471;-60
2023/03/09 04:15:26;;;;;;;1.93;0.70;;;;;;;;;;5055016;28;20419;-59
2023/03/09 04:17:54;;;;;;;0.47;0.47;;;;;;;;;;5054914;28;20411;-59
2023/03/09 04:20:20;;;;;;;0.67;0.67;;;;;;;;;;5054910;28;20422;-60
2023/03/09 04:22:48;;;;;;;1.47;0.90;;;;;;;;;;5054921;28;20422;-60
2023/03/09 04:25:15;;;;;;;0.40;0.40;;;;;;;;;;5054898;28;20458;-60
2023/03/09 04:27:41;;;;;;;0.50;0.50;;;;;;;;;;5054741;28;20408;-60
2023/03/09 04:30:07;;;;;;;0.47;0.47;;;;;;;;;;5055150;28;20940;-61
2023/03/09 04:32:33;;;;;;;2.30;0.80;;;;;;;;;;5054684;28;20407;-61
2023/03/09 04:34:59;;;;;;;0.60;0.50;;;;;;;;;;5054131;28;20411;-60
2023/03/09 04:37:25;;;;;;;1.10;0.47;;;;;;;;;;5054609;28;20838;-60
2023/03/09 04:39:51;;;;;;;1.47;0.50;;;;;;;;;;5054456;28;20432;-61
2023/03/09 04:42:17;;;;;;;0.60;0.60;;;;;;;;;;5054650;28;20456;-61
2023/03/09 04:44:43;;;;;;;0.60;0.50;;;;;;;;;;5054272;28;20481;-61
2023/03/09 04:47:12;;;;;;;0.73;0.50;;;;;;;;;;5052811;28;20517;-60
2023/03/09 04:49:38;;;;;;;0.40;0.40;;;;;;;;;;5054559;28;20450;-61
2023/03/09 04:52:04;;;;;;;0.93;0.50;;;;;;;;;;5054223;28;20437;-60
2023/03/09 04:54:30;;;;;;;0.47;0.47;;;;;;;;;;5054296;28;20423;-60
2023/03/09 04:56:56;;;;;;;0.90;0.40;;;;;;;;;;5054096;28;20798;-60
2023/03/09 04:59:22;;;;;;;0.40;0.40;;;;;;;;;;5054209;28;20510;-60
2023/03/09 05:01:48;;;;;;;0.47;0.47;;;;;;;;;;5054034;28;20434;-60
2023/03/09 05:04:14;;;;;;;1.10;0.80;;;;;;;;;;5053951;28;20421;-60
2023/03/09 05:06:44;;;;;;;0.90;0.83;;;;;;;;;;5052626;28;20922;-60
2023/03/09 05:09:14;;;;;;;0.80;0.80;;;;;;;;;;5053985;28;20768;-60
2023/03/09 05:11:41;;;;;;;1.27;0.80;;;;;;;;;;5053903;28;20450;-60
2023/03/09 05:14:07;;;;;;;0.80;0.80;;;;;;;;;;5053991;28;20407;-60
2023/03/09 05:16:33;;;;;;;2.27;2.10;;;;;;;;;;5053535;28;20442;-59
2023/03/09 05:18:59;;;;;;;4.33;0.97;;;;;;;;;;5053885;28;20430;-60
2023/03/09 05:21:25;;;;;;;0.93;0.70;;;;;;;;;;5053623;28;20441;-60
2023/03/09 05:23:51;;;;;;;1.67;0.70;;;;;;;;;;5053672;28;20417;-62
2023/03/09 05:26:17;;;;;;;1.43;0.90;;;;;;;;;;5053600;28;20474;-59
2023/03/09 05:28:43;;;;;;;1.17;1.07;;;;;;;;;;5053622;28;20461;-60
2023/03/09 05:31:10;;;;;;;2.23;1.00;;;;;;;;;;5053476;28;20422;-60
2023/03/09 05:33:39;;;;;;;2.33;1.03;;;;;;;;;;5053494;28;20414;-61
2023/03/09 05:36:14;;;;;;;6.93;1.10;;;;;;;;;;5053300;28;20476;-60
2023/03/09 05:38:40;;;;;;;5.20;2.87;;;;;;;;;;5053170;28;20426;-60
2023/03/09 05:41:06;;;;;;;3.87;1.20;;;;;;;;;;5053515;28;20437;-61
2023/03/09 05:43:35;;;;;;;1.80;0.80;;;;;;;;;;5052936;28;20438;-61
2023/03/09 05:46:02;;;;;;;1.80;1.00;;;;;;;;;;5052382;28;20505;-60
2023/03/09 05:48:31;;;;;;;1.40;0.90;;;;;;;;;;5053152;28;20897;-60
2023/03/09 05:50:59;;;;;;;1.57;0.73;;;;;;;;;;5053163;28;20430;-60
2023/03/09 05:53:25;;;;;;;4.20;1.20;;;;;;;;;;5053147;28;20901;-60
2023/03/09 05:55:52;;;;;;;1.80;0.90;;;;;;;;;;5053086;28;20411;-61
2023/03/09 05:58:18;;;;;;;9.63;1.87;;;;;;;;;;5052831;28;20466;-60
2023/03/09 06:00:46;;;;;;;3.70;1.50;;;;;;;;;;5053169;28;20481;-61
2023/03/09 06:03:12;;;;;;;3.10;1.07;;;;;;;;;;5051953;28;20959;-60
2023/03/09 06:05:38;;;;;;;1.60;1.17;;;;;;;;;;5051507;28;20470;-60
2023/03/09 06:08:04;;;;;;;2.60;2.00;;;;;;;;;;5052850;28;20915;-59
2023/03/09 06:10:30;;;;;;;2.90;1.73;;;;;;;;;;5052819;28;20407;-60
2023/03/09 06:12:56;;;;;;;7.03;2.30;;;;;;;;;;5052814;28;20861;-60
2023/03/09 06:15:22;;;;;;;4.50;1.57;;;;;;;;;;5052714;28;20433;-60
2023/03/09 06:17:49;;;;;;;6.73;1.47;;;;;;;;;;5052775;28;21020;-60
2023/03/09 06:20:15;;;;;;;3.73;1.77;;;;;;;;;;5052575;28;20415;-60
2023/03/09 06:22:44;;;;;;;5.00;1.80;;;;;;;;;;5052524;28;20477;-60
2023/03/09 06:25:12;;;;;;;6.40;1.90;;;;;;;;;;5052742;28;20558;-60
2023/03/09 06:27:38;;;;;;;3.20;1.70;;;;;;;;;;5052565;28;20411;-60
2023/03/09 06:30:05;;;;;;;2.20;1.80;;;;;;;;;;5052549;28;20781;-60
2023/03/09 06:32:36;;;;;;;4.50;1.60;;;;;;;;;;5052517;28;20438;-59
2023/03/09 06:35:03;;;;;;;3.30;1.73;;;;;;;;;;5052386;28;20414;-59
2023/03/09 06:37:28;;;;;;;2.73;1.67;;;;;;;;;;5052364;28;20421;-60
2023/03/09 06:39:54;;;;;;;2.83;1.60;;;;;;;;;;5052445;28;20418;-60
2023/03/09 06:42:20;;;;;;;3.20;2.00;;;;;;;;;;5052410;28;20438;-60
2023/03/09 06:44:46;;;;;;;4.00;1.50;;;;;;;;;;5052390;28;20450;-60
2023/03/09 06:47:12;;;;;;;4.37;2.17;;;;;;;;;;5052206;28;20427;-60
2023/03/09 06:49:38;;;;;;;2.70;1.50;;;;;;;;;;5052217;28;20473;-60
2023/03/09 06:52:05;;;;;;;4.43;1.70;;;;;;;;;;5052376;28;20490;-59
2023/03/09 06:54:34;;;;;;;4.33;1.87;;;;;;;;;;5052394;28;20423;-60
2023/03/09 06:57:00;;;;;;;3.27;1.63;;;;;;;;;;5053305;28;20423;-60
2023/03/09 06:59:28;;;;;;;7.47;2.00;;;;;;;;;;5056305;28;20460;-60
2023/03/09 07:01:54;;;;;;;4.53;2.13;;;;;;;;;;5056454;28;20449;-59
2023/03/09 07:04:23;;;;;;;5.13;2.13;;;;;;;;;;5056169;28;20984;-60
2023/03/09 07:06:49;;;;;;;3.47;1.67;;;;;;;;;;5056286;28;20419;-59
2023/03/09 07:09:14;;;;;;;14.53;2.43;;;;;;;;;;5056168;28;20408;-59
2023/03/09 07:11:40;;;;;;;4.80;1.97;;;;;;;;;;5056331;28;20395;-59
2023/03/09 07:14:06;;;;;;;2.37;2.10;;;;;;;;;;5054889;28;20936;-59
2023/03/09 07:16:33;;;;;;;7.33;2.07;;;;;;;;;;5056141;28;20853;-59
2023/03/09 07:18:58;;;;;;;4.40;2.40;;;;;;;;;;5056102;28;20407;-59
2023/03/09 07:21:25;;;;;;;7.97;1.87;;;;;;;;;;5055720;28;20411;-59
2023/03/09 07:23:53;;;;;;;4.17;2.20;;;;;;;;;;5055894;28;20506;-58
2023/03/09 07:26:20;;;;;;;3.00;1.80;;;;;;;;;;5056004;28;20816;-59
2023/03/09 07:28:48;;;;;;;2.70;1.60;;;;;;;;;;5055764;28;20433;-60
2023/03/09 07:31:14;;;;;;;6.10;1.50;;;;;;;;;;5055998;28;20886;-59
2023/03/09 07:33:41;;;;;;;2.93;1.50;;;;;;;;;;5055402;28;20443;-60
2023/03/09 07:36:07;;;;;;;6.40;1.70;;;;;;;;;;5055742;28;20418;-60
2023/03/09 07:38:36;;;;;;;1.83;1.47;;;;;;;;;;5054419;28;20422;-59
2023/03/09 07:41:02;;;;;;;3.87;2.20;;;;;;;;;;5055552;28;20407;-60
2023/03/09 07:43:28;;;;;;;3.80;1.40;;;;;;;;;;5055208;28;20462;-64
2023/03/09 07:45:56;;;;;;;2.53;1.40;;;;;;;;;;5055344;28;20543;-64
2023/03/09 07:48:22;;;;;;;5.50;1.47;;;;;;;;;;5055034;28;20800;-63
2023/03/09 07:50:58;;;;;;;5.57;1.30;;;;;;;;;;5054530;28;20407;-63
2023/03/09 07:53:24;;;;;;;5.30;1.97;;;;;;;;;;5054215;28;20498;-63
2023/03/09 07:56:00;;;;;;;5.03;1.57;;;;;;;;;;5054713;28;20422;-64
2023/03/09 07:58:27;;;;;;;2.77;1.60;;;;;;;;;;5055071;28;20925;-64
2023/03/09 08:00:53;;;;;;;3.07;1.70;;;;;;;;;;5055010;28;20422;-63
2023/03/09 08:03:19;;;;;;;6.23;1.57;;;;;;;;;;5054844;28;20472;-64
2023/03/09 08:05:54;;;;;;;8.43;1.90;;;;;;;;;;5054623;28;20475;-64
2023/03/09 08:08:21;;;;;;;5.17;1.50;;;;;;;;;;5053996;28;20441;-64
2023/03/09 08:10:47;;;;;;;3.00;1.60;;;;;;;;;;5054564;28;20407;-64
2023/03/09 08:13:13;;;;;;;6.33;2.10;;;;;;;;;;5054988;28;20434;-64
2023/03/09 08:15:39;;;;;;;6.40;2.10;;;;;;;;;;5054111;28;20426;-64
2023/03/09 08:18:06;;;;;;;3.37;1.90;;;;;;;;;;5053184;28;20443;-64
2023/03/09 08:20:31;;;;;;;6.20;2.27;;;;;;;;;;5054537;28;20415;-64
2023/03/09 08:22:58;;;;;;;7.40;2.50;;;;;;;;;;5053663;28;20995;-64
2023/03/09 08:25:24;;;;;;;2.50;1.67;;;;;;;;;;5053518;28;20481;-64
2023/03/09 08:27:51;;;;;;;8.10;1.97;;;;;;;;;;5053515;28;20920;-63
2023/03/09 08:30:20;;;;;;;4.60;2.03;;;;;;;;;;5053266;28;20426;-63
2023/03/09 08:32:47;;;;;;;4.03;3.17;;;;;;;;;;5052479;28;20514;-63
2023/03/09 08:35:13;;;;;;;5.63;2.20;;;;;;;;;;5053945;28;20414;-63
2023/03/09 08:37:42;;;;;;;3.67;1.50;;;;;;;;;;5053843;28;20450;-65
2023/03/09 08:40:09;;;;;;;8.13;2.30;;;;;;;;;;5054865;28;20414;-65
2023/03/09 08:42:35;;;;;;;13.33;2.80;;;;;;;;;;5052400;28;20434;-66
2023/03/09 08:45:01;;;;;;;3.37;1.73;;;;;;;;;;5054426;28;20459;-65
2023/03/09 08:47:27;;;;;;;9.33;1.70;;;;;;;;;;5052820;28;20423;-65
2023/03/09 08:49:53;;;;;;;3.77;2.10;;;;;;;;;;5054123;28;20433;-65
2023/03/09 08:52:19;;;;;;;7.87;2.50;;;;;;;;;;5054444;28;20890;-65
2023/03/09 08:54:46;;;;;;;3.10;2.00;;;;;;;;;;5053828;28;20474;-65
2023/03/09 08:57:15;;;;;;;5.83;2.00;;;;;;;;;;5054029;28;20506;-64
2023/03/09 08:59:41;;;;;;;9.30;2.70;;;;;;;;;;5053403;28;20442;-65
2023/03/09 09:02:07;;;;;;;8.97;2.17;;;;;;;;;;5054040;28;20903;-65
2023/03/09 09:04:33;;;;;;;4.80;2.10;;;;;;;;;;5053529;28;20537;-64
2023/03/09 09:06:59;;;;;;;5.67;2.00;;;;;;;;;;5053394;28;20442;-65
2023/03/09 09:09:25;;;;;;;7.80;2.10;;;;;;;;;;5054019;28;20488;-65
2023/03/09 09:11:51;;;;;;;7.17;2.30;;;;;;;;;;5053761;28;20429;-64
2023/03/09 09:14:17;;;;;;;12.30;2.40;;;;;;;;;;5054168;28;20480;-65
2023/03/09 09:16:43;;;;;;;5.77;3.23;;;;;;;;;;5052310;28;20414;-65
2023/03/09 09:19:09;;;;;;;6.20;2.73;;;;;;;;;;5054373;28;20411;-65
2023/03/09 09:21:35;;;;;;;7.10;2.00;;;;;;;;;;5052595;28;20479;-65
2023/03/09 09:24:01;;;;;;;8.17;2.67;;;;;;;;;;5053322;28;20414;-65
2023/03/09 09:26:27;;;;;;;11.43;3.07;;;;;;;;;;5052452;28;20467;-65
2023/03/09 09:28:56;;;;;;;7.43;2.10;;;;;;;;;;5053355;28;20417;-65
2023/03/09 09:31:24;;;;;;;7.23;1.70;;;;;;;;;;5051729;28;20419;-65
2023/03/09 09:33:51;;;;;;;4.90;2.43;;;;;;;;;;5052744;28;20429;-65
2023/03/09 09:36:19;;;;;;;7.20;2.33;;;;;;;;;;5052805;28;20465;-65
2023/03/09 09:38:46;;;;;;;5.57;2.13;;;;;;;;;;5052416;28;20934;-65
2023/03/09 09:41:18;;;;;;;7.80;2.93;;;;;;;;;;5053045;28;20410;-65
2023/03/09 09:43:45;;;;;;;6.00;2.10;;;;;;;;;;5052813;28;20402;-65
2023/03/09 09:46:13;;;;;;;5.93;2.27;;;;;;;;;;5053277;28;20952;-65
2023/03/09 09:48:40;;;;;;;6.63;2.20;;;;;;;;;;5053142;28;20480;-65
2023/03/09 09:51:09;;;;;;;5.43;1.93;;;;;;;;;;5053282;28;20430;-65
2023/03/09 09:53:35;;;;;;;5.80;1.87;;;;;;;;;;5052849;28;20418;-65
2023/03/09 09:56:01;;;;;;;7.63;2.27;;;;;;;;;;5052754;28;20430;-65
2023/03/09 09:58:29;;;;;;;8.07;2.20;;;;;;;;;;5052725;28;20468;-65
2023/03/09 10:00:57;;;;;;;5.50;2.33;;;;;;;;;;5052718;28;20954;-65
2023/03/09 10:03:39;;;;;;;7.40;2.03;;;;;;;;;;5053107;28;20482;-66
2023/03/09 10:06:17;;;;;;;3.40;1.63;;;;;;;;;;5051387;28;20878;-65
2023/03/09 10:08:52;;;;;;;6.27;2.20;;;;;;;;;;5052943;28;20399;-66
2023/03/09 10:11:34;;;;;;;11.47;2.50;;;;;;;;;;5052810;28;20416;-66
2023/03/09 10:14:19;;;;;;;7.50;2.00;;;;;;;;;;5052763;28;20783;-64
2023/03/09 10:16:47;;;;;;;6.77;2.27;;;;;;;;;;5052671;28;20410;-64
2023/03/09 10:19:20;;;;;;;12.03;2.53;;;;;;;;;;5052592;28;20791;-64
2023/03/09 10:22:04;;;;;;;3.57;1.30;;;;;;;;;;5051754;28;20465;-64
2023/03/09 10:24:36;;;;;;;5.20;2.00;;;;;;;;;;5052499;28;20490;-65
2023/03/09 10:27:07;;;;;;;8.30;3.20;;;;;;;;;;5052397;28;20445;-64
2023/03/09 10:29:48;;;;;;;10.93;3.73;;;;;;;;;;5052724;28;20516;-64
2023/03/09 10:32:21;;;;;;;8.50;2.97;;;;;;;;;;5051326;28;20422;-64
2023/03/09 10:34:56;;;;;;;4.40;2.23;;;;;;;;;;5051960;28;20440;-64
2023/03/09 10:37:28;;;;;;;6.23;2.03;;;;;;;;;;5051998;28;20417;-64
2023/03/09 10:39:54;;;;;;;7.50;2.07;;;;;;;;;;5052333;28;20933;-64
2023/03/09 10:42:21;;;;;;;3.87;2.70;;;;;;;;;;5052369;28;20905;-64
2023/03/09 10:44:51;;;;;;;6.70;2.07;;;;;;;;;;5052299;28;21051;-64
2023/03/09 10:47:17;;;;;;;5.00;1.27;;;;;;;;;;5052237;28;20434;-64
2023/03/09 10:50:05;;;;;;;6.43;2.03;;;;;;;;;;5052222;28;20917;-64
2023/03/09 10:52:31;;;;;;;7.53;1.70;;;;;;;;;;5050786;28;20450;-65
2023/03/09 10:54:57;;;;;;;3.30;1.67;;;;;;;;;;5051906;28;20474;-65
2023/03/09 10:57:31;;;;;;;6.30;1.67;;;;;;;;;;5052176;28;20407;-64
2023/03/09 10:59:58;;;;;;;1.87;1.70;;;;;;;;;;5052046;28;20432;-64
2023/03/09 11:02:31;;;;;;;2.83;1.30;;;;;;;;;;5052088;28;20457;-64
2023/03/09 11:04:57;;;;;;;2.30;1.30;;;;;;;;;;5051938;28;20557;-64
2023/03/09 11:07:26;;;;;;;1.53;1.17;;;;;;;;;;5052204;28;20459;-64
2023/03/09 11:09:53;;;;;;;13.63;1.10;;;;;;;;;;5052130;28;20431;-64
2023/03/09 11:12:34;;;;;;;2.20;1.37;;;;;;;;;;5052146;28;20404;-64
2023/03/09 11:15:01;;;;;;;1.37;1.20;;;;;;;;;;5050657;28;20485;-64
2023/03/09 11:17:38;;;;;;;4.43;1.30;;;;;;;;;;5052023;28;20417;-65
2023/03/09 11:20:20;;;;;;;3.07;1.40;;;;;;;;;;5052285;28;20465;-64
2023/03/09 11:22:50;;;;;;;3.03;1.57;;;;;;;;;;5052536;28;20907;-64
2023/03/09 11:25:36;;;;;;;2.83;1.40;;;;;;;;;;5051950;28;20470;-65
2023/03/09 11:28:33;;;;;;;1.70;1.30;;;;;;;;;;5031581;28;20415;-65
2023/03/09 11:31:00;;;;;;;3.63;1.20;;;;;;;;;;5016023;28;20534;-64
2023/03/09 11:33:26;;;;;;;4.93;1.63;;;;;;;;;;5052244;28;20407;-64
2023/03/09 11:35:53;;;;;;;1.00;0.90;;;;;;;;;;5052025;28;20523;-64
2023/03/09 11:38:20;;;;;;;2.47;1.87;;;;;;;;;;5052197;28;20415;-64
2023/03/09 11:40:47;;;;;;;2.60;1.57;;;;;;;;;;5051881;28;20448;-65
2023/03/09 11:43:16;;;;;;;2.50;1.60;;;;;;;;;;5051795;28;20441;-64
2023/03/09 11:45:42;;;;;;;3.50;1.17;;;;;;;;;;5055297;28;20470;-65
2023/03/09 11:48:14;;;;;;;5.37;1.73;;;;;;;;;;5055551;28;20493;-64
2023/03/09 11:50:45;;;;;;;1.90;1.43;;;;;;;;;;5055155;28;20487;-64
2023/03/09 11:53:29;;;;;;;4.13;2.07;;;;;;;;;;5055377;28;20881;-65
2023/03/09 11:56:02;;;;;;;8.43;2.30;;;;;;;;;;5055244;28;20770;-65
2023/03/09 11:58:38;;;;;;;4.50;2.23;;;;;;;;;;5055199;28;20436;-64
2023/03/09 12:01:09;;;;;;;7.07;2.83;;;;;;;;;;5055571;28;20437;-65
2023/03/09 12:03:42;;;;;;;6.20;1.90;;;;;;;;;;5055010;28;20415;-65
2023/03/09 12:06:20;;;;;;;5.13;2.10;;;;;;;;;;5054994;28;20470;-64
2023/03/09 12:08:46;;;;;;;7.90;2.13;;;;;;;;;;5054971;28;20419;-64
2023/03/09 12:11:34;;;;;;;6.73;2.60;;;;;;;;;;5054950;28;20489;-65
2023/03/09 12:14:08;;;;;;;7.40;2.20;;;;;;;;;;5054989;28;20468;-65
2023/03/09 12:16:39;;;;;;;7.20;1.90;;;;;;;;;;5054881;28;20430;-65
2023/03/09 12:19:11;;;;;;;6.90;1.60;;;;;;;;;;5054886;28;20411;-65
2023/03/09 12:22:03;;;;;;;7.20;2.30;;;;;;;;;;5054587;28;20932;-65
2023/03/09 12:24:33;;;;;;;4.93;2.10;;;;;;;;;;5035993;28;20431;-65
2023/03/09 12:27:02;;;;;;;5.50;1.90;;;;;;;;;;5054904;28;20407;-65
2023/03/09 12:29:33;;;;;;;5.80;2.20;;;;;;;;;;5054152;28;20794;-64
2023/03/09 12:32:18;;;;;;;8.00;2.50;;;;;;;;;;5054296;28;20434;-65
2023/03/09 12:34:45;;;;;;;6.80;2.50;;;;;;;;;;5053948;28;20806;-65
2023/03/09 12:37:29;;;;;;;4.57;2.20;;;;;;;;;;5054487;28;20419;-65
2023/03/09 12:40:05;;;;;;;6.80;2.10;;;;;;;;;;5053983;28;20424;-65
2023/03/09 12:42:38;;;;;;;10.00;2.90;;;;;;;;;;5054239;28;20429;-64
2023/03/09 12:45:23;;;;;;;5.50;1.90;;;;;;;;;;5054299;28;20480;-65
2023/03/09 12:48:02;;;;;;;6.63;1.90;;;;;;;;;;5053867;28;20470;-65
2023/03/09 12:50:45;;;;;;;5.53;2.37;;;;;;;;;;5054210;28;20895;-65
2023/03/09 12:53:20;;;;;;;12.83;2.97;;;;;;;;;;5054087;28;20508;-65
2023/03/09 12:55:52;;;;;;;11.20;2.50;;;;;;;;;;5053750;28;20429;-65
2023/03/09 12:58:21;;;;;;;8.43;2.73;;;;;;;;;;5053747;28;20456;-65
2023/03/09 13:00:56;;;;;;;10.47;2.70;;;;;;;;;;5053669;28;20446;-65
2023/03/09 13:03:26;;;;;;;7.47;2.40;;;;;;;;;;5052919;28;20432;-65
2023/03/09 13:05:52;;;;;;;6.53;2.93;;;;;;;;;;5053597;28;20908;-65
2023/03/09 13:08:31;;;;;;;9.40;3.20;;;;;;;;;;5053848;28;20421;-65
2023/03/09 13:11:15;;;;;;;8.77;2.60;;;;;;;;;;5053689;28;20484;-65
2023/03/09 13:13:45;;;;;;;5.10;2.10;;;;;;;;;;5053916;28;20410;-65
2023/03/09 13:16:29;;;;;;;3.43;1.50;;;;;;;;;;5053823;28;20446;-65
2023/03/09 13:19:14;;;;;;;7.57;2.53;;;;;;;;;;5034439;28;20853;-65
2023/03/09 13:21:43;;;;;;;7.30;2.87;;;;;;;;;;5034104;28;20489;-66
2023/03/09 13:24:27;;;;;;;10.50;2.40;;;;;;;;;;5033845;28;20430;-66
2023/03/09 13:26:58;;;;;;;5.40;2.37;;;;;;;;;;5033413;28;20486;-65
2023/03/09 13:29:26;;;;;;;8.10;2.10;;;;;;;;;;5033690;28;20415;-66
2023/03/09 13:31:55;;;;;;;4.67;2.40;;;;;;;;;;5033859;28;20970;-66
2023/03/09 13:34:22;;;;;;;8.60;2.57;;;;;;;;;;5033924;28;20411;-67
2023/03/09 13:36:49;;;;;;;8.57;1.90;;;;;;;;;;5033855;28;20485;-67
2023/03/09 13:39:20;;;;;;;6.97;2.30;;;;;;;;;;5033932;28;20430;-66
2023/03/09 13:41:49;;;;;;;5.13;2.03;;;;;;;;;;5033659;28;20474;-67
2023/03/09 13:44:19;;;;;;;7.53;2.30;;;;;;;;;;5033796;28;20504;-66
2023/03/09 13:46:47;;;;;;;4.50;2.20;;;;;;;;;;5033656;28;20456;-66
2023/03/09 13:49:18;;;;;;;7.87;2.07;;;;;;;;;;5033587;28;20444;-67
2023/03/09 13:51:50;;;;;;;2.90;1.70;;;;;;;;;;5033788;28;21002;-67
2023/03/09 13:54:22;;;;;;;2.17;1.60;;;;;;;;;;5033622;28;20414;-67
2023/03/09 13:57:00;;;;;;;5.50;2.00;;;;;;;;;;5033531;28;20445;-67
2023/03/09 13:59:30;;;;;;;4.60;2.07;;;;;;;;;;5033373;28;20501;-67
2023/03/09 14:02:01;;;;;;;3.93;2.20;;;;;;;;;;5033299;28;20444;-67
2023/03/09 14:04:27;;;;;;;9.13;2.60;;;;;;;;;;5033358;28;20837;-66
2023/03/09 14:06:56;;;;;;;2.80;2.00;;;;;;;;;;5032535;28;20438;-65
2023/03/09 14:09:27;;;;;;;4.40;2.30;;;;;;;;;;5033596;28;20840;-66
2023/03/09 14:11:54;;;;;;;6.27;2.10;;;;;;;;;;5033107;28;20422;-64
2023/03/09 14:14:24;;;;;;;4.23;2.33;;;;;;;;;;5033316;28;20442;-64
2023/03/09 14:16:53;;;;;;;3.73;2.50;;;;;;;;;;5033174;28;20850;-65
2023/03/09 14:19:29;;;;;;;7.93;3.03;;;;;;;;;;5033147;28;20399;-64
2023/03/09 14:21:55;;;;;;;10.63;2.27;;;;;;;;;;5033110;28;20402;-64
2023/03/09 14:24:21;;;;;;;7.77;2.80;;;;;;;;;;5033261;28;20410;-64
2023/03/09 14:26:48;;;;;;;2.60;1.67;;;;;;;;;;5032953;28;20895;-66
2023/03/09 14:29:14;;;;;;;4.43;2.10;;;;;;;;;;5033122;28;20448;-64
2023/03/09 14:31:42;;;;;;;6.77;2.33;;;;;;;;;;5032993;28;20426;-64
2023/03/09 14:34:20;;;;;;;3.97;1.80;;;;;;;;;;5032882;28;20445;-64
2023/03/09 14:36:47;;;;;;;5.70;1.93;;;;;;;;;;5033017;28;20950;-65
2023/03/09 14:39:19;;;;;;;4.97;2.23;;;;;;;;;;5031784;28;20766;-65
2023/03/09 14:42:01;;;;;;;7.63;2.37;;;;;;;;;;5032905;28;20753;-66
2023/03/09 14:44:29;;;;;;;5.27;1.90;;;;;;;;;;5032587;28;20409;-66
2023/03/09 14:46:57;;;;;;;9.33;2.07;;;;;;;;;;5032729;28;20421;-66
2023/03/09 14:49:23;;;;;;;6.10;2.07;;;;;;;;;;5032680;28;20800;-66
2023/03/09 14:51:49;;;;;;;7.83;1.80;;;;;;;;;;5032716;28;20417;-66
2023/03/09 14:54:19;;;;;;;4.97;2.07;;;;;;;;;;5032540;28;20482;-65